»·PEaware :: AAL343 KBOI-KBIL

AAL343 :: KBOI-KBIL

FLIGHT INFORMATION

Flight Status: Arrived
Operator:
American Airlines
More flights by this operator :: More flights under this callsign
Pilot: James W. (12414)
Aircraft: MCDONNELL-DOUGLAS MD-88
(MD88)
More flights by this aircraft type
Origin: KBOI Boise Air Terminal/Gowen
United States
Destination: KBIL Billings Logan Intl
United States
More flights between these airports :: More routes between these airports
Route: +BOI3 NATZZ BYRCH CRAZI2
File this flight plan on PilotEdge
Remarks:
Altitude:
(Current/Filed)
330ft
Speed:
(Current/Filed)
500kts
Departed: 03-May-18 05:54 PM
Arrived: 03-May-18 07:07 PM
Distance/Time
Traveled:
354nm/1:12
Distance/Time
To Go:
Arrived

Flight Plot

Page will automatically refresh every two minutes.

Flight plan parsing failed; only flown route is shown


Map Options




Map Legend


Flown Route
Filed Route
Departure Airport
Arrival Airport
Navaid (VOR, NDB)
Fix

Horizontal Profiles

Position Reports

Time Latitude Longitude Heading Altitude Ground
Speed
03-May-18 17:35 43.567869 -116.219071 219 2878ft 0kts
03-May-18 17:36 43.567869 -116.219071 219 2878ft 0kts
03-May-18 17:37 43.567869 -116.219071 219 2878ft 0kts
03-May-18 17:38 43.567869 -116.219071 219 2877ft 0kts
03-May-18 17:39 43.567869 -116.219071 219 2877ft 0kts
03-May-18 17:40 43.567869 -116.219071 219 2877ft 0kts
03-May-18 17:41 43.567869 -116.219071 219 2877ft 0kts
03-May-18 17:42 43.567869 -116.219071 219 2877ft 0kts
03-May-18 17:43 43.567869 -116.219071 219 2877ft 0kts
03-May-18 17:44 43.567869 -116.219071 219 2877ft 0kts
03-May-18 17:45 43.567869 -116.219071 219 2877ft 0kts
03-May-18 17:46 43.567918 -116.219016 219 2877ft 2kts
03-May-18 17:47 43.568289 -116.219018 110 2877ft 0kts
03-May-18 17:48 43.568293 -116.219032 108 2877ft 0kts
03-May-18 17:49 43.568293 -116.219032 108 2877ft 0kts
03-May-18 17:50 43.566368 -116.217075 171 2877ft 14kts
03-May-18 17:51 43.562984 -116.212229 112 2877ft 20kts
03-May-18 17:52 43.560083 -116.203576 115 2877ft 26kts
03-May-18 17:53 43.559094 -116.202195 190 2877ft 10kts
03-May-18 17:54 43.567462 -116.229007 296 3101ft 186kts
03-May-18 17:55 43.586806 -116.303283 290 5050ft 235kts
03-May-18 17:56 43.620100 -116.384211 336 7133ft 274kts
03-May-18 17:57 43.680128 -116.340817 79 9286ft 290kts
03-May-18 17:58 43.664851 -116.229382 98 11451ft 313kts
03-May-18 17:59 43.651352 -116.105626 97 13707ft 335kts
03-May-18 18:00 43.638308 -115.977738 96 15987ft 347kts
03-May-18 18:01 43.623830 -115.833105 96 16011ft 403kts
03-May-18 18:01 43.611125 -115.704753 96 16002ft 405kts
03-May-18 18:03 43.651104 -115.545163 50 18452ft 398kts
03-May-18 18:04 43.713949 -115.420676 54 20517ft 397kts
03-May-18 18:05 43.772561 -115.298216 54 22510ft 391kts
03-May-18 18:06 43.831170 -115.175467 54 24525ft 380kts
03-May-18 18:07 43.888092 -115.056433 53 26510ft 365kts
03-May-18 18:07 43.933701 -114.961284 52 27753ft 359kts
03-May-18 18:08 43.989837 -114.844411 52 28482ft 373kts
03-May-18 18:09 44.048184 -114.723112 51 29211ft 385kts
03-May-18 18:10 44.106679 -114.601758 51 29905ft 395kts
03-May-18 18:11 44.168259 -114.474285 51 30646ft 403kts
03-May-18 18:12 44.230433 -114.345862 52 31371ft 409kts
03-May-18 18:13 44.293790 -114.215283 51 32074ft 413kts
03-May-18 18:14 44.358221 -114.082799 51 32776ft 415kts
03-May-18 18:15 44.423725 -113.948448 51 33017ft 427kts
03-May-18 18:16 44.491706 -113.809304 51 33016ft 441kts
03-May-18 18:17 44.560843 -113.668119 51 33006ft 439kts
03-May-18 18:18 44.629643 -113.527995 50 33002ft 438kts
03-May-18 18:19 44.698476 -113.388138 50 33000ft 438kts
03-May-18 18:20 44.766072 -113.251124 51 32997ft 438kts
03-May-18 18:21 44.835497 -113.110735 51 33002ft 438kts
03-May-18 18:22 44.904766 -112.970980 50 33006ft 436kts
03-May-18 18:23 44.973984 -112.831668 50 33004ft 432kts
03-May-18 18:24 45.043010 -112.693110 50 31787ft 436kts
03-May-18 18:25 45.111496 -112.555950 50 30425ft 442kts
03-May-18 18:26 45.182759 -112.413556 50 29088ft 448kts
03-May-18 18:27 45.253500 -112.272536 50 27760ft 452kts
03-May-18 18:28 45.326693 -112.126986 50 26389ft 456kts
03-May-18 18:29 45.400767 -111.980054 50 25018ft 460kts
03-May-18 18:30 45.474373 -111.834386 50 23604ft 442kts
03-May-18 18:31 45.543891 -111.697214 50 22157ft 419kts
03-May-18 18:32 45.611409 -111.564283 50 20765ft 413kts
03-May-18 18:33 45.678087 -111.433281 50 19378ft 407kts
03-May-18 18:34 45.741942 -111.308098 51 18020ft 399kts
03-May-18 18:35 45.806579 -111.181643 51 17075ft 389kts
03-May-18 18:36 45.870763 -111.056312 51 17073ft 394kts
03-May-18 18:37 45.914823 -110.911619 69 17072ft 401kts
03-May-18 18:38 45.950747 -110.760006 68 17068ft 402kts
03-May-18 18:39 45.987273 -110.608757 68 17064ft 402kts
03-May-18 18:40 46.024157 -110.456987 67 17064ft 402kts
03-May-18 18:41 46.060564 -110.308022 68 17061ft 402kts
03-May-18 18:42 46.096707 -110.155805 69 16294ft 399kts
03-May-18 18:43 46.130768 -110.010615 68 15712ft 366kts
03-May-18 18:44 46.162705 -109.875231 68 16064ft 359kts
03-May-18 18:45 46.193052 -109.737793 82 16026ft 362kts
03-May-18 18:46 46.165786 -109.597683 110 15023ft 366kts
03-May-18 18:47 46.129832 -109.462425 110 13308ft 363kts
03-May-18 18:48 46.094846 -109.328973 111 11477ft 362kts
03-May-18 18:49 46.061847 -109.203298 110 9751ft 299kts
03-May-18 18:50 46.034416 -109.100159 110 8144ft 267kts
03-May-18 18:51 46.009181 -109.006768 110 8013ft 250kts
03-May-18 18:52 45.985788 -108.912727 100 8012ft 251kts
03-May-18 18:53 45.969691 -108.815398 107 8014ft 252kts
03-May-18 18:54 45.947639 -108.720129 107 8010ft 252kts
03-May-18 18:55 45.925547 -108.624463 107 7290ft 251kts
03-May-18 18:56 45.903998 -108.531147 107 6302ft 246kts
03-May-18 18:57 45.883368 -108.441807 106 6011ft 243kts
03-May-18 18:58 45.863786 -108.357209 106 5997ft 214kts
03-May-18 18:59 45.845793 -108.279448 107 6007ft 212kts
03-May-18 19:00 45.809669 -108.230167 197 6054ft 204kts
03-May-18 19:01 45.760709 -108.262303 254 6030ft 190kts
03-May-18 19:02 45.751768 -108.336118 292 5950ft 186kts
03-May-18 19:03 45.769398 -108.399554 293 5300ft 149kts
03-May-18 19:04 45.783253 -108.450136 293 4523ft 147kts
03-May-18 19:05 45.797415 -108.500187 293 3903ft 126kts
03-May-18 19:06 45.808409 -108.539665 259 3658ft 20kts
03-May-18 19:07 45.806632 -108.539904 112 3658ft 19kts

Navigation Log

Ident Type
Flight plan parsing failed, navigation log unavailable